createdAt,value
2018-05-10T00:00:41.465Z,94484
2018-05-10T00:03:09.567Z,94487
2018-05-10T00:05:37.702Z,94488
2018-05-10T00:08:05.785Z,94487
2018-05-10T00:10:34.005Z,94492
2018-05-10T00:13:02.137Z,94496
2018-05-10T00:15:30.242Z,94493
2018-05-10T00:17:58.367Z,94491
2018-05-10T00:20:27.193Z,94495
2018-05-10T00:22:55.435Z,94489
2018-05-10T00:25:23.549Z,94493
2018-05-10T00:27:56.909Z,94478
2018-05-10T00:30:25.014Z,94498
2018-05-10T00:32:53.153Z,94492
2018-05-10T00:35:21.380Z,94489
2018-05-10T00:37:49.646Z,94490
2018-05-10T00:40:17.839Z,94498
2018-05-10T00:42:46.132Z,94492
2018-05-10T00:45:14.356Z,94496
2018-05-10T00:47:42.550Z,94494
2018-05-10T00:50:10.730Z,94481
2018-05-10T00:52:38.813Z,94494
2018-05-10T00:55:06.944Z,94495
2018-05-10T00:57:35.647Z,94495
2018-05-10T01:00:03.837Z,94496
2018-05-10T01:02:32.137Z,94491
2018-05-10T01:05:00.399Z,94482
2018-05-10T01:07:28.545Z,94484
2018-05-10T01:09:56.645Z,94482
2018-05-10T01:12:24.763Z,94494
2018-05-10T01:14:52.876Z,94487
2018-05-10T01:17:21.011Z,94488
2018-05-10T01:19:49.113Z,94497
2018-05-10T01:22:17.251Z,94496
2018-05-10T01:24:46.177Z,94500
2018-05-10T01:27:14.327Z,94501
2018-05-10T01:29:42.436Z,94494
2018-05-10T01:32:10.539Z,94505
2018-05-10T01:34:38.659Z,94506
2018-05-10T01:37:07.281Z,94510
2018-05-10T01:39:35.425Z,94505
2018-05-10T01:42:03.526Z,94512
2018-05-10T01:44:31.632Z,94500
2018-05-10T01:46:59.744Z,94504
2018-05-10T01:49:27.866Z,94503
2018-05-10T01:51:56.002Z,94502
2018-05-10T01:54:24.230Z,94506
2018-05-10T01:56:52.356Z,94503
2018-05-10T01:59:20.532Z,94510
2018-05-10T02:01:48.699Z,94504
2018-05-10T02:04:16.810Z,94513
2018-05-10T02:06:44.936Z,94503
2018-05-10T02:09:13.034Z,94502
2018-05-10T02:11:41.156Z,94501
2018-05-10T02:14:09.500Z,94505
2018-05-10T02:16:37.604Z,94496
2018-05-10T02:19:05.778Z,94501
2018-05-10T02:21:33.923Z,94494
2018-05-10T02:24:02.067Z,94505
2018-05-10T02:26:30.169Z,94503
2018-05-10T02:28:59.008Z,94494
2018-05-10T02:31:27.141Z,94500
2018-05-10T02:33:55.265Z,94500
2018-05-10T02:36:23.581Z,94494
2018-05-10T02:38:51.778Z,94505
2018-05-10T02:41:20.038Z,94504
2018-05-10T02:43:48.185Z,94499
2018-05-10T02:46:16.383Z,94508
2018-05-10T02:48:44.510Z,94504
2018-05-10T02:51:12.656Z,94512
2018-05-10T02:53:40.755Z,94515
2018-05-10T02:56:08.912Z,94510
2018-05-10T02:58:37.024Z,94519
2018-05-10T03:01:05.136Z,94518
2018-05-10T03:03:33.300Z,94524
2018-05-10T03:06:02.176Z,94513
2018-05-10T03:08:30.365Z,94520
2018-05-10T03:10:58.500Z,94517
2018-05-10T03:13:26.618Z,94508
2018-05-10T03:15:54.754Z,94505
2018-05-10T03:18:23.734Z,94510
2018-05-10T03:20:51.844Z,94516
2018-05-10T03:23:19.968Z,94508
2018-05-10T03:25:48.098Z,94512
2018-05-10T03:28:16.188Z,94501
2018-05-10T03:30:44.311Z,94511
2018-05-10T03:33:12.500Z,94513
2018-05-10T03:35:40.541Z,94505
2018-05-10T03:38:08.755Z,94512
2018-05-10T03:40:37.697Z,94516
2018-05-10T03:43:05.749Z,94515
2018-05-10T03:45:33.885Z,94512
2018-05-10T03:48:01.977Z,94518
2018-05-10T03:50:30.136Z,94509
2018-05-10T03:52:58.227Z,94504
2018-05-10T03:55:26.341Z,94512
2018-05-10T03:57:54.493Z,94508
2018-05-10T04:00:22.711Z,94514
2018-05-10T04:06:39.013Z,94522
2018-05-10T04:09:24.874Z,94516
2018-05-10T04:11:53.560Z,94528
2018-05-10T04:14:21.763Z,94526
2018-05-10T04:16:50.607Z,94536
2018-05-10T04:19:18.726Z,94542
2018-05-10T04:21:46.836Z,94535
2018-05-10T04:24:14.977Z,94535
2018-05-10T04:26:43.092Z,94543
2018-05-10T04:29:11.960Z,94543
2018-05-10T04:31:40.072Z,94543
2018-05-10T04:34:08.178Z,94543
2018-05-10T04:36:36.288Z,94547
2018-05-10T04:39:04.427Z,94551
2018-05-10T04:41:33.231Z,94545
2018-05-10T04:44:01.349Z,94537
2018-05-10T04:46:29.464Z,94543
2018-05-10T04:48:57.552Z,94551
2018-05-10T04:51:25.698Z,94548
2018-05-10T04:53:53.805Z,94545
2018-05-10T04:56:21.917Z,94541
2018-05-10T04:58:50.003Z,94542
2018-05-10T05:01:18.127Z,94542
2018-05-10T05:03:46.984Z,94553
2018-05-10T05:06:15.116Z,94548
2018-05-10T05:08:43.902Z,94550
2018-05-10T05:11:12.028Z,94560
2018-05-10T05:13:40.725Z,94556
2018-05-10T05:16:08.875Z,94571
2018-05-10T05:18:37.059Z,94562
2018-05-10T05:21:05.184Z,94563
2018-05-10T05:23:33.319Z,94564
2018-05-10T05:26:02.021Z,94563
2018-05-10T05:28:30.130Z,94557
2018-05-10T05:30:58.310Z,94561
2018-05-10T05:33:26.487Z,94556
2018-05-10T05:35:54.585Z,94559
2018-05-10T05:38:22.703Z,94557
2018-05-10T05:40:50.820Z,94562
2018-05-10T05:43:19.068Z,94569
2018-05-10T05:45:47.750Z,94574
2018-05-10T05:48:15.860Z,94573
2018-05-10T05:50:43.981Z,94565
2018-05-10T05:53:12.102Z,94562
2018-05-10T05:55:40.965Z,94570
2018-05-10T05:58:09.075Z,94571
2018-05-10T06:00:37.200Z,94579
2018-05-10T06:03:05.361Z,94585
2018-05-10T06:05:33.455Z,94589
2018-05-10T06:08:02.193Z,94588
2018-05-10T06:10:30.311Z,94583
2018-05-10T06:12:58.418Z,94584
2018-05-10T06:15:26.633Z,94592
2018-05-10T06:17:55.346Z,94588
2018-05-10T06:20:23.786Z,94599
2018-05-10T06:22:52.649Z,94607
2018-05-10T06:25:21.164Z,94614
2018-05-10T06:27:50.027Z,94607
2018-05-10T06:30:25.640Z,94611
2018-05-10T06:33:04.760Z,94615
2018-05-10T06:35:36.995Z,94620
2018-05-10T06:38:27.222Z,94625
2018-05-10T06:41:14.617Z,94615
2018-05-10T06:44:00.231Z,94629
2018-05-10T06:46:29.669Z,94624
2018-05-10T06:49:08.241Z,94632
2018-05-10T06:51:36.536Z,94628
2018-05-10T06:54:04.824Z,94639
2018-05-10T06:56:33.039Z,94643
2018-05-10T06:59:01.556Z,94637
2018-05-10T07:01:29.705Z,94634
2018-05-10T07:03:58.201Z,94648
2018-05-10T07:06:34.196Z,94644
2018-05-10T07:09:02.378Z,94663
2018-05-10T07:11:30.585Z,94658
2018-05-10T07:14:02.391Z,94658
2018-05-10T07:16:37.244Z,94665
2018-05-10T07:19:23.025Z,94667
2018-05-10T07:22:03.682Z,94664
2018-05-10T07:24:31.900Z,94670
2018-05-10T07:27:00.031Z,94671
2018-05-10T07:29:28.139Z,94668
2018-05-10T07:31:56.247Z,94677
2018-05-10T07:34:24.345Z,94675
2018-05-10T07:36:52.463Z,94676
2018-05-10T07:39:20.566Z,94678
2018-05-10T07:41:48.676Z,94678
2018-05-10T07:44:16.785Z,94688
2018-05-10T07:46:45.021Z,94675
2018-05-10T07:49:13.247Z,94682
2018-05-10T07:51:41.802Z,94682
2018-05-10T07:54:09.922Z,94683
2018-05-10T07:56:38.078Z,94681
2018-05-10T07:59:06.288Z,94692
2018-05-10T08:01:34.586Z,94696
2018-05-10T08:04:02.844Z,94701
2018-05-10T08:06:31.059Z,94710
2018-05-10T08:08:59.233Z,94710
2018-05-10T08:11:27.367Z,94724
2018-05-10T08:13:56.062Z,94706
2018-05-10T08:16:24.992Z,94717
2018-05-10T08:18:53.933Z,94715
2018-05-10T08:21:37.268Z,94712
2018-05-10T08:24:05.440Z,94710
2018-05-10T08:26:33.563Z,94704
2018-05-10T08:29:01.747Z,94708
2018-05-10T08:31:29.863Z,94708
2018-05-10T08:33:58.016Z,94722
2018-05-10T08:36:26.793Z,94726
2018-05-10T08:38:54.831Z,94730
2018-05-10T08:41:23.719Z,94735
2018-05-10T08:43:52.603Z,94744
2018-05-10T08:46:20.695Z,94749
2018-05-10T08:48:49.573Z,94747
2018-05-10T08:51:18.556Z,94758
2018-05-10T08:53:46.680Z,94758
2018-05-10T08:56:15.059Z,94747
2018-05-10T08:58:43.443Z,94747
2018-05-10T09:01:12.795Z,94747
2018-05-10T09:03:41.701Z,94755
2018-05-10T09:06:10.994Z,94749
2018-05-10T09:08:39.129Z,94751
2018-05-10T09:11:07.309Z,94752
2018-05-10T09:13:35.812Z,94758
2018-05-10T09:16:03.935Z,94761
2018-05-10T09:18:32.234Z,94759
2018-05-10T09:21:00.381Z,94772
2018-05-10T09:23:28.500Z,94772
2018-05-10T09:25:56.602Z,94768
2018-05-10T09:28:25.596Z,94773
2018-05-10T09:30:53.908Z,94767
2018-05-10T09:33:22.454Z,94772
2018-05-10T09:35:50.577Z,94772
2018-05-10T09:38:18.766Z,94772
2018-05-10T09:40:46.904Z,94776
2018-05-10T09:43:15.155Z,94775
2018-05-10T09:45:43.392Z,94767
2018-05-10T09:48:11.573Z,94779
2018-05-10T09:50:39.808Z,94770
2018-05-10T09:53:07.938Z,94794
2018-05-10T10:08:31.567Z,94802
2018-05-10T10:11:01.351Z,94804
2018-05-10T10:13:29.556Z,94795
2018-05-10T10:15:57.663Z,94803
2018-05-10T10:18:27.455Z,94787
2018-05-10T10:20:56.155Z,94809
2018-05-10T10:23:24.271Z,94800
2018-05-10T10:25:52.452Z,94806
2018-05-10T10:28:21.171Z,94802
2018-05-10T10:30:50.183Z,94818
2018-05-10T10:33:19.307Z,94814
2018-05-10T10:35:49.934Z,94810
2018-05-10T10:38:18.061Z,94807
2018-05-10T10:40:46.151Z,94815
2018-05-10T10:43:14.344Z,94808
2018-05-10T10:45:42.528Z,94810
2018-05-10T10:48:10.806Z,94802
2018-05-10T10:50:40.967Z,94803
2018-05-10T10:53:11.734Z,94806
2018-05-10T10:55:39.833Z,94800
2018-05-10T10:58:11.469Z,94808
2018-05-10T11:00:39.550Z,94807
2018-05-10T11:03:08.796Z,94813
2018-05-10T11:05:36.979Z,94810
2018-05-10T11:08:05.412Z,94805
2018-05-10T11:10:33.510Z,94822
2018-05-10T11:13:01.744Z,94814
2018-05-10T11:15:29.850Z,94820
2018-05-10T11:17:57.982Z,94822
2018-05-10T11:20:26.734Z,94818
2018-05-10T11:22:54.856Z,94822
2018-05-10T11:25:23.039Z,94829
2018-05-10T11:27:51.252Z,94829
2018-05-10T11:30:19.484Z,94838
2018-05-10T11:32:47.817Z,94831
2018-05-10T11:35:16.192Z,94829
2018-05-10T11:37:44.315Z,94823
2018-05-10T11:40:13.200Z,94828
2018-05-10T11:42:41.450Z,94817
2018-05-10T11:45:09.555Z,94823
2018-05-10T11:47:37.671Z,94820
2018-05-10T11:50:05.845Z,94818
2018-05-10T11:52:33.961Z,94817
2018-05-10T11:55:02.102Z,94821
2018-05-10T11:57:30.248Z,94828
2018-05-10T11:59:58.359Z,94830
2018-05-10T12:02:26.598Z,94826
2018-05-10T12:04:55.380Z,94825
2018-05-10T12:07:23.764Z,94829
2018-05-10T12:09:51.958Z,94831
2018-05-10T12:12:20.074Z,94840
2018-05-10T12:14:48.236Z,94832
2018-05-10T12:17:16.376Z,94835
2018-05-10T12:19:44.539Z,94840
2018-05-10T12:22:12.640Z,94838
2018-05-10T12:24:40.946Z,94848
2018-05-10T12:27:09.120Z,94842
2018-05-10T12:29:37.502Z,94839
2018-05-10T12:32:05.686Z,94842
2018-05-10T12:34:33.945Z,94863
2018-05-10T12:37:02.611Z,94846
2018-05-10T12:39:37.562Z,94860
2018-05-10T12:42:06.909Z,94863
2018-05-10T12:44:35.511Z,94865
2018-05-10T12:47:03.696Z,94868
2018-05-10T12:49:32.654Z,94868
2018-05-10T12:52:05.311Z,94862
2018-05-10T12:54:33.464Z,94871
2018-05-10T12:57:01.605Z,94871
2018-05-10T12:59:29.722Z,94863
2018-05-10T13:01:58.612Z,94876
2018-05-10T13:04:27.601Z,94892
2018-05-10T13:06:55.841Z,94875
2018-05-10T13:09:23.931Z,94878
2018-05-10T13:11:52.321Z,94880
2018-05-10T13:14:20.488Z,94886
2018-05-10T13:16:48.763Z,94888
2018-05-10T13:19:20.595Z,94895
2018-05-10T13:21:49.348Z,94897
2018-05-10T13:24:21.503Z,94896
2018-05-10T13:26:49.615Z,94897
2018-05-10T13:29:17.764Z,94897
2018-05-10T13:31:46.603Z,94906
2018-05-10T13:34:14.702Z,94899
2018-05-10T13:36:42.821Z,94900
2018-05-10T13:39:11.000Z,94909
2018-05-10T13:41:39.945Z,94896
2018-05-10T13:44:08.074Z,94904
2018-05-10T13:46:36.241Z,94909
2018-05-10T13:49:05.102Z,94903
2018-05-10T13:51:33.228Z,94910
2018-05-10T13:54:01.326Z,94912
2018-05-10T13:56:29.577Z,94922
2018-05-10T13:58:57.771Z,94924
2018-05-10T14:01:25.962Z,94931
2018-05-10T14:03:54.209Z,94926
2018-05-10T14:06:22.491Z,94937
2018-05-10T14:08:51.136Z,94927
2018-05-10T14:11:19.337Z,94930
2018-05-10T14:13:47.476Z,94941
2018-05-10T14:16:15.592Z,94941
2018-05-10T14:18:43.831Z,94955
2018-05-10T14:21:12.794Z,94953
2018-05-10T14:23:41.074Z,94953
2018-05-10T14:26:09.374Z,94958
2018-05-10T14:28:37.621Z,94961
2018-05-10T14:31:06.057Z,94960
2018-05-10T14:33:35.172Z,94956
2018-05-10T14:36:03.600Z,94961
2018-05-10T14:38:31.657Z,94965
2018-05-10T14:40:59.984Z,94970
2018-05-10T14:43:28.251Z,94973
2018-05-10T14:45:56.832Z,94977
2018-05-10T14:48:25.066Z,94982
2018-05-10T14:50:53.328Z,94980
2018-05-10T14:53:30.146Z,94990
2018-05-10T14:55:58.352Z,94988
2018-05-10T14:58:26.588Z,94993
2018-05-10T15:00:54.821Z,94991
2018-05-10T15:03:23.051Z,94991
2018-05-10T15:05:52.012Z,95013
2018-05-10T15:08:20.120Z,95008
2018-05-10T15:10:48.728Z,95031
2018-05-10T15:13:16.933Z,95022
2018-05-10T15:15:45.074Z,95021
2018-05-10T15:18:13.556Z,95025
2018-05-10T15:20:41.702Z,95024
2018-05-10T15:23:09.936Z,95028
2018-05-10T15:25:38.233Z,95020
2018-05-10T15:28:06.382Z,95030
2018-05-10T15:30:34.537Z,95028
2018-05-10T15:33:02.749Z,95040
2018-05-10T15:35:31.749Z,95042
2018-05-10T15:37:59.935Z,95045
2018-05-10T15:40:28.733Z,95040
2018-05-10T15:42:56.966Z,95041
2018-05-10T15:45:25.187Z,95044
2018-05-10T15:47:53.309Z,95045
2018-05-10T15:50:21.866Z,95054
2018-05-10T15:52:50.101Z,95057
2018-05-10T15:55:18.283Z,95058
2018-05-10T15:57:47.301Z,95074
2018-05-10T16:00:15.530Z,95072
2018-05-10T16:02:43.712Z,95076
2018-05-10T16:05:11.941Z,95076
2018-05-10T16:07:40.105Z,95077
2018-05-10T16:10:08.365Z,95080
2018-05-10T16:12:36.688Z,95083
2018-05-10T16:15:04.890Z,95087
2018-05-10T16:17:33.024Z,95081
2018-05-10T16:20:01.458Z,95075
2018-05-10T16:22:31.393Z,95081
2018-05-10T16:24:59.651Z,95085
2018-05-10T16:27:27.801Z,95086
2018-05-10T16:29:55.971Z,95088
2018-05-10T16:32:24.205Z,95090
2018-05-10T16:34:53.335Z,95092
2018-05-10T16:37:21.601Z,95099
2018-05-10T16:39:49.758Z,95102
2018-05-10T16:42:18.096Z,95104
2018-05-10T16:44:46.285Z,95113
2018-05-10T16:47:14.511Z,95120
2018-05-10T16:49:42.683Z,95123
2018-05-10T16:52:10.822Z,95125
2018-05-10T16:54:39.022Z,95126
2018-05-10T16:57:07.350Z,95149
2018-05-10T16:59:35.835Z,95133
2018-05-10T17:02:04.117Z,95139
2018-05-10T17:04:32.421Z,95161
2018-05-10T17:07:00.897Z,95153
2018-05-10T17:09:29.188Z,95166
2018-05-10T17:11:57.701Z,95157
2018-05-10T17:14:25.955Z,95163
2018-05-10T17:16:54.160Z,95172
2018-05-10T17:19:22.320Z,95167
2018-05-10T17:21:50.523Z,95180
2018-05-10T17:24:18.765Z,95178
2018-05-10T17:26:47.201Z,95190
2018-05-10T17:29:15.631Z,95192
2018-05-10T17:31:43.876Z,95201
2018-05-10T17:34:12.052Z,95209
2018-05-10T17:36:40.226Z,95219
2018-05-10T17:39:08.348Z,95228
2018-05-10T17:41:37.350Z,95222
2018-05-10T17:44:05.904Z,95227
2018-05-10T17:46:34.534Z,95234
2018-05-10T17:49:03.245Z,95235
2018-05-10T17:51:33.186Z,95245
2018-05-10T17:54:01.469Z,95247
2018-05-10T17:56:30.152Z,95270
2018-05-10T17:58:58.358Z,95268
2018-05-10T18:01:26.497Z,95264
2018-05-10T18:03:54.750Z,95271
2018-05-10T18:06:22.956Z,95278
2018-05-10T18:08:51.392Z,95281
2018-05-10T18:11:19.692Z,95288
2018-05-10T18:13:47.975Z,95294
2018-05-10T18:16:16.821Z,95292
2018-05-10T18:18:45.363Z,95298
2018-05-10T18:21:16.101Z,95293
2018-05-10T18:23:44.467Z,95303
2018-05-10T18:26:12.715Z,95306
2018-05-10T18:28:41.565Z,95313
2018-05-10T18:31:10.024Z,95320
2018-05-10T18:33:38.302Z,95321
2018-05-10T18:36:06.765Z,95320
2018-05-10T18:38:35.052Z,95324
2018-05-10T18:41:03.262Z,95332
2018-05-10T18:43:31.530Z,95335
2018-05-10T18:46:00.321Z,95333
2018-05-10T18:48:28.448Z,95339
2018-05-10T18:50:56.566Z,95334
2018-05-10T18:53:24.660Z,95342
2018-05-10T18:55:52.836Z,95361
2018-05-10T18:58:20.934Z,95371
2018-05-10T19:00:49.101Z,95366
2018-05-10T19:03:17.268Z,95371
2018-05-10T19:05:45.388Z,95380
2018-05-10T19:08:14.268Z,95382
2018-05-10T19:10:42.397Z,95387
2018-05-10T19:13:10.526Z,95392
2018-05-10T19:15:38.642Z,95405
2018-05-10T19:18:06.789Z,95416
2018-05-10T19:20:34.972Z,95412
2018-05-10T19:23:03.096Z,95429
2018-05-10T19:25:32.154Z,95428
2018-05-10T19:28:00.288Z,95440
2018-05-10T19:30:28.395Z,95447
2018-05-10T19:32:56.502Z,95453
2018-05-10T19:35:24.601Z,95458
2018-05-10T19:37:52.706Z,95464
2018-05-10T19:40:20.833Z,95475
2018-05-10T19:42:48.937Z,95481
2018-05-10T19:45:17.112Z,95489
2018-05-10T19:47:45.216Z,95502
2018-05-10T19:50:13.328Z,95515
2018-05-10T19:52:41.417Z,95508
2018-05-10T19:55:09.523Z,95515
2018-05-10T19:57:41.630Z,95527
2018-05-10T20:00:09.737Z,95534
2018-05-10T20:02:37.861Z,95538
2018-05-10T20:05:05.961Z,95556
2018-05-10T20:07:34.077Z,95582
2018-05-10T20:10:02.179Z,95572
2018-05-10T20:12:30.433Z,95589
2018-05-10T20:14:58.590Z,95602
2018-05-10T20:17:26.835Z,95605
2018-05-10T20:19:55.064Z,95593
2018-05-10T20:22:23.292Z,95605
2018-05-10T20:24:51.845Z,95605
2018-05-10T20:27:19.952Z,95623
2018-05-10T20:29:48.144Z,95616
2018-05-10T20:32:16.315Z,95620
2018-05-10T20:34:44.410Z,95619
2018-05-10T20:37:13.011Z,95628
2018-05-10T20:39:41.116Z,95635
2018-05-10T20:42:09.273Z,95631
2018-05-10T20:44:37.399Z,95634
2018-05-10T20:47:05.534Z,95646
2018-05-10T20:49:34.414Z,95646
2018-05-10T20:52:03.360Z,95652
2018-05-10T20:54:31.494Z,95659
2018-05-10T20:56:59.718Z,95658
2018-05-10T20:59:27.959Z,95652
2018-05-10T21:01:56.311Z,95665
2018-05-10T21:04:24.841Z,95656
2018-05-10T21:06:53.986Z,95661
2018-05-10T21:09:22.855Z,95662
2018-05-10T21:11:51.081Z,95668
2018-05-10T21:14:23.091Z,95670
2018-05-10T21:16:51.361Z,95675
2018-05-10T21:19:20.146Z,95677
2018-05-10T21:21:48.256Z,95678
2018-05-10T21:24:16.747Z,95681
2018-05-10T21:26:44.880Z,95683
2018-05-10T21:29:12.989Z,95692
2018-05-10T21:31:41.085Z,95701
2018-05-10T21:34:09.227Z,95696
2018-05-10T21:36:37.410Z,95702
2018-05-10T21:39:07.112Z,95708
2018-05-10T21:41:35.232Z,95706
2018-05-10T21:44:03.354Z,95715
2018-05-10T21:46:31.510Z,95715
2018-05-10T21:48:59.829Z,95717
2018-05-10T21:51:28.030Z,95706
2018-05-10T21:53:56.234Z,95705
2018-05-10T21:56:24.360Z,95719
2018-05-10T21:58:52.513Z,95703
2018-05-10T22:01:20.605Z,95709
2018-05-10T22:03:48.725Z,95724
2018-05-10T22:06:46.302Z,95724
2018-05-10T22:09:16.302Z,95730
2018-05-10T22:11:44.409Z,95722
2018-05-10T22:14:13.706Z,95725
2018-05-10T22:16:41.953Z,95743
2018-05-10T22:19:10.071Z,95733
2018-05-10T22:21:38.185Z,95730
2018-05-10T22:24:06.408Z,95740
2018-05-10T22:26:34.661Z,95730
2018-05-10T22:29:02.916Z,95732
2018-05-10T22:31:31.395Z,95737
2018-05-10T22:33:59.498Z,95731
2018-05-10T22:36:27.657Z,95737
2018-05-10T22:38:55.905Z,95739
2018-05-10T22:41:24.145Z,95742
2018-05-10T22:43:52.399Z,95735
2018-05-10T22:46:20.505Z,95738
2018-05-10T22:48:48.611Z,95748
2018-05-10T22:51:17.191Z,95740
2018-05-10T22:53:45.417Z,95739
2018-05-10T22:56:13.537Z,95734
2018-05-10T22:58:42.891Z,95737
2018-05-10T23:01:11.093Z,95735
2018-05-10T23:03:39.280Z,95733
2018-05-10T23:06:07.489Z,95746
2018-05-10T23:08:35.559Z,95745
2018-05-10T23:11:04.247Z,95751
2018-05-10T23:13:32.622Z,95748
2018-05-10T23:16:00.719Z,95750
2018-05-10T23:18:28.900Z,95750
2018-05-10T23:20:57.080Z,95741
2018-05-10T23:23:25.254Z,95743
2018-05-10T23:25:53.360Z,95735
2018-05-10T23:28:21.496Z,95734
2018-05-10T23:30:49.626Z,95737
2018-05-10T23:33:18.551Z,95734
2018-05-10T23:35:46.667Z,95739
2018-05-10T23:38:14.829Z,95737
2018-05-10T23:40:43.042Z,95728
2018-05-10T23:43:11.176Z,95727
2018-05-10T23:45:39.284Z,95736
2018-05-10T23:48:07.753Z,95739
2018-05-10T23:50:36.474Z,95745
2018-05-10T23:53:04.612Z,95739
2018-05-10T23:55:32.748Z,95736
2018-05-10T23:58:01.821Z,95740
